sensor_id;sensor_type;location;lat;lon;timestamp;temperature;humidity
22714;DHT22;11524;50.846;4.326;2023-04-24T00:00:34;19.80;65.90
22714;DHT22;11524;50.846;4.326;2023-04-24T00:03:01;19.80;65.20
22714;DHT22;11524;50.846;4.326;2023-04-24T00:05:29;19.80;64.50
22714;DHT22;11524;50.846;4.326;2023-04-24T00:07:55;19.80;65.70
22714;DHT22;11524;50.846;4.326;2023-04-24T00:10:21;19.80;65.70
22714;DHT22;11524;50.846;4.326;2023-04-24T00:12:47;19.80;65.40
22714;DHT22;11524;50.846;4.326;2023-04-24T00:15:13;19.80;65.70
22714;DHT22;11524;50.846;4.326;2023-04-24T00:17:38;19.80;65.20
22714;DHT22;11524;50.846;4.326;2023-04-24T00:20:05;19.80;65.30
22714;DHT22;11524;50.846;4.326;2023-04-24T00:22:32;19.80;65.40
22714;DHT22;11524;50.846;4.326;2023-04-24T00:24:58;19.80;65.70
22714;DHT22;11524;50.846;4.326;2023-04-24T00:27:23;19.80;65.70
22714;DHT22;11524;50.846;4.326;2023-04-24T00:29:49;19.80;65.40
22714;DHT22;11524;50.846;4.326;2023-04-24T00:32:15;19.80;65.50
22714;DHT22;11524;50.846;4.326;2023-04-24T00:34:41;19.70;64.90
22714;DHT22;11524;50.846;4.326;2023-04-24T00:37:07;19.80;65.70
22714;DHT22;11524;50.846;4.326;2023-04-24T00:39:32;19.70;65.50
22714;DHT22;11524;50.846;4.326;2023-04-24T00:41:58;19.70;65.90
22714;DHT22;11524;50.846;4.326;2023-04-24T00:44:24;19.70;65.40
22714;DHT22;11524;50.846;4.326;2023-04-24T00:46:50;19.70;65.40
22714;DHT22;11524;50.846;4.326;2023-04-24T00:49:20;19.70;65.40
22714;DHT22;11524;50.846;4.326;2023-04-24T00:51:46;19.70;65.60
22714;DHT22;11524;50.846;4.326;2023-04-24T00:54:15;19.70;65.40
22714;DHT22;11524;50.846;4.326;2023-04-24T00:56:42;19.70;65.70
22714;DHT22;11524;50.846;4.326;2023-04-24T00:59:08;19.70;66.00
22714;DHT22;11524;50.846;4.326;2023-04-24T01:01:34;19.70;60.70
22714;DHT22;11524;50.846;4.326;2023-04-24T01:04:00;19.70;60.40
22714;DHT22;11524;50.846;4.326;2023-04-24T01:06:28;19.70;60.40
22714;DHT22;11524;50.846;4.326;2023-04-24T01:08:54;19.70;60.30
22714;DHT22;11524;50.846;4.326;2023-04-24T01:11:21;19.60;59.90
22714;DHT22;11524;50.846;4.326;2023-04-24T01:13:48;19.60;59.90
22714;DHT22;11524;50.846;4.326;2023-04-24T01:16:14;19.60;60.00
22714;DHT22;11524;50.846;4.326;2023-04-24T01:18:40;19.60;59.80
22714;DHT22;11524;50.846;4.326;2023-04-24T01:21:08;19.60;59.90
22714;DHT22;11524;50.846;4.326;2023-04-24T01:23:34;19.60;59.90
22714;DHT22;11524;50.846;4.326;2023-04-24T01:26:00;19.60;59.90
22714;DHT22;11524;50.846;4.326;2023-04-24T01:28:26;19.50;59.80
22714;DHT22;11524;50.846;4.326;2023-04-24T01:30:52;19.50;59.60
22714;DHT22;11524;50.846;4.326;2023-04-24T01:33:21;19.50;59.60
22714;DHT22;11524;50.846;4.326;2023-04-24T01:35:47;19.50;59.60
22714;DHT22;11524;50.846;4.326;2023-04-24T01:38:13;19.50;59.60
22714;DHT22;11524;50.846;4.326;2023-04-24T01:40:39;19.40;59.80
22714;DHT22;11524;50.846;4.326;2023-04-24T01:43:05;19.50;59.60
22714;DHT22;11524;50.846;4.326;2023-04-24T01:45:31;19.50;60.00
22714;DHT22;11524;50.846;4.326;2023-04-24T01:47:57;19.50;59.80
22714;DHT22;11524;50.846;4.326;2023-04-24T01:50:22;19.40;60.10
22714;DHT22;11524;50.846;4.326;2023-04-24T01:52:48;19.40;60.10
22714;DHT22;11524;50.846;4.326;2023-04-24T01:55:14;19.40;59.60
22714;DHT22;11524;50.846;4.326;2023-04-24T01:57:40;19.40;59.70
22714;DHT22;11524;50.846;4.326;2023-04-24T02:00:06;19.40;59.80
22714;DHT22;11524;50.846;4.326;2023-04-24T02:02:38;19.40;59.60
22714;DHT22;11524;50.846;4.326;2023-04-24T02:05:06;19.30;59.70
22714;DHT22;11524;50.846;4.326;2023-04-24T02:07:32;19.40;60.10
22714;DHT22;11524;50.846;4.326;2023-04-24T02:09:58;19.40;59.80
22714;DHT22;11524;50.846;4.326;2023-04-24T02:12:24;19.30;59.50
22714;DHT22;11524;50.846;4.326;2023-04-24T02:14:49;19.30;59.50
22714;DHT22;11524;50.846;4.326;2023-04-24T02:17:15;19.30;59.50
22714;DHT22;11524;50.846;4.326;2023-04-24T02:19:41;19.30;59.90
22714;DHT22;11524;50.846;4.326;2023-04-24T02:22:07;19.30;59.90
22714;DHT22;11524;50.846;4.326;2023-04-24T02:24:32;19.30;59.60
22714;DHT22;11524;50.846;4.326;2023-04-24T02:26:58;19.30;59.60
22714;DHT22;11524;50.846;4.326;2023-04-24T02:29:24;19.30;59.60
22714;DHT22;11524;50.846;4.326;2023-04-24T02:31:49;19.30;59.80
22714;DHT22;11524;50.846;4.326;2023-04-24T02:34:15;19.30;59.80
22714;DHT22;11524;50.846;4.326;2023-04-24T02:36:41;19.30;59.60
22714;DHT22;11524;50.846;4.326;2023-04-24T02:39:07;19.30;59.90
22714;DHT22;11524;50.846;4.326;2023-04-24T02:41:33;19.30;60.00
22714;DHT22;11524;50.846;4.326;2023-04-24T02:43:59;19.30;60.00
22714;DHT22;11524;50.846;4.326;2023-04-24T02:46:25;19.20;59.60
22714;DHT22;11524;50.846;4.326;2023-04-24T02:48:50;19.20;60.10
22714;DHT22;11524;50.846;4.326;2023-04-24T02:51:16;19.20;60.10
22714;DHT22;11524;50.846;4.326;2023-04-24T02:53:42;19.20;60.10
22714;DHT22;11524;50.846;4.326;2023-04-24T02:56:07;19.20;60.00
22714;DHT22;11524;50.846;4.326;2023-04-24T02:58:33;19.20;59.70
22714;DHT22;11524;50.846;4.326;2023-04-24T03:00:59;19.20;59.90
22714;DHT22;11524;50.846;4.326;2023-04-24T03:03:25;19.20;59.60
22714;DHT22;11524;50.846;4.326;2023-04-24T03:05:51;19.20;59.70
22714;DHT22;11524;50.846;4.326;2023-04-24T03:08:17;19.10;59.80
22714;DHT22;11524;50.846;4.326;2023-04-24T03:10:43;19.10;59.70
22714;DHT22;11524;50.846;4.326;2023-04-24T03:13:09;19.20;59.90
22714;DHT22;11524;50.846;4.326;2023-04-24T03:15:34;19.10;60.00
22714;DHT22;11524;50.846;4.326;2023-04-24T03:18:00;19.20;59.80
22714;DHT22;11524;50.846;4.326;2023-04-24T03:20:26;19.20;60.20
22714;DHT22;11524;50.846;4.326;2023-04-24T03:22:51;19.10;59.90
22714;DHT22;11524;50.846;4.326;2023-04-24T03:25:17;19.10;59.90
22714;DHT22;11524;50.846;4.326;2023-04-24T03:27:43;19.10;59.80
22714;DHT22;11524;50.846;4.326;2023-04-24T03:30:09;19.20;59.80
22714;DHT22;11524;50.846;4.326;2023-04-24T03:32:35;19.20;59.70
22714;DHT22;11524;50.846;4.326;2023-04-24T03:35:00;19.10;59.80
22714;DHT22;11524;50.846;4.326;2023-04-24T03:37:26;19.10;59.40
22714;DHT22;11524;50.846;4.326;2023-04-24T03:39:52;19.20;60.10
22714;DHT22;11524;50.846;4.326;2023-04-24T03:42:18;19.20;60.10
22714;DHT22;11524;50.846;4.326;2023-04-24T03:44:43;19.20;60.30
22714;DHT22;11524;50.846;4.326;2023-04-24T03:47:09;19.20;59.80
22714;DHT22;11524;50.846;4.326;2023-04-24T03:49:35;19.20;59.90
22714;DHT22;11524;50.846;4.326;2023-04-24T03:52:01;19.10;59.60
22714;DHT22;11524;50.846;4.326;2023-04-24T03:54:27;19.10;59.70
22714;DHT22;11524;50.846;4.326;2023-04-24T03:56:53;19.20;59.90
22714;DHT22;11524;50.846;4.326;2023-04-24T03:59:18;19.10;59.80
22714;DHT22;11524;50.846;4.326;2023-04-24T04:01:44;19.10;59.80
22714;DHT22;11524;50.846;4.326;2023-04-24T04:04:11;19.10;59.70
22714;DHT22;11524;50.846;4.326;2023-04-24T04:06:36;19.10;59.80
22714;DHT22;11524;50.846;4.326;2023-04-24T04:09:02;19.10;59.60
22714;DHT22;11524;50.846;4.326;2023-04-24T04:11:29;19.10;59.70
22714;DHT22;11524;50.846;4.326;2023-04-24T04:13:55;19.10;59.90
22714;DHT22;11524;50.846;4.326;2023-04-24T04:16:22;19.10;59.50
22714;DHT22;11524;50.846;4.326;2023-04-24T04:18:48;19.10;59.60
22714;DHT22;11524;50.846;4.326;2023-04-24T04:21:14;19.10;59.70
22714;DHT22;11524;50.846;4.326;2023-04-24T04:23:40;19.10;59.60
22714;DHT22;11524;50.846;4.326;2023-04-24T04:26:06;19.10;59.90
22714;DHT22;11524;50.846;4.326;2023-04-24T04:28:31;19.10;59.90
22714;DHT22;11524;50.846;4.326;2023-04-24T04:30:58;19.00;59.70
22714;DHT22;11524;50.846;4.326;2023-04-24T04:33:24;19.10;59.70
22714;DHT22;11524;50.846;4.326;2023-04-24T04:35:50;19.10;59.80
22714;DHT22;11524;50.846;4.326;2023-04-24T04:38:18;19.00;59.60
22714;DHT22;11524;50.846;4.326;2023-04-24T04:40:44;19.10;59.60
22714;DHT22;11524;50.846;4.326;2023-04-24T04:43:10;19.10;59.60
22714;DHT22;11524;50.846;4.326;2023-04-24T04:45:36;19.10;59.50
22714;DHT22;11524;50.846;4.326;2023-04-24T04:48:02;19.10;59.30
22714;DHT22;11524;50.846;4.326;2023-04-24T04:50:29;19.00;59.40
22714;DHT22;11524;50.846;4.326;2023-04-24T04:52:54;19.00;59.30
22714;DHT22;11524;50.846;4.326;2023-04-24T04:55:20;19.10;59.40
22714;DHT22;11524;50.846;4.326;2023-04-24T04:57:46;19.10;59.40
22714;DHT22;11524;50.846;4.326;2023-04-24T05:00:13;19.00;59.30
22714;DHT22;11524;50.846;4.326;2023-04-24T05:02:41;19.00;59.40
22714;DHT22;11524;50.846;4.326;2023-04-24T05:05:07;19.00;59.30
22714;DHT22;11524;50.846;4.326;2023-04-24T05:07:33;19.00;59.40
22714;DHT22;11524;50.846;4.326;2023-04-24T05:09:58;19.00;59.50
22714;DHT22;11524;50.846;4.326;2023-04-24T05:12:24;19.00;59.40
22714;DHT22;11524;50.846;4.326;2023-04-24T05:14:50;19.00;59.30
22714;DHT22;11524;50.846;4.326;2023-04-24T05:17:15;19.00;59.30
22714;DHT22;11524;50.846;4.326;2023-04-24T05:19:41;19.00;59.40
22714;DHT22;11524;50.846;4.326;2023-04-24T05:22:07;19.00;59.60
22714;DHT22;11524;50.846;4.326;2023-04-24T05:24:33;19.00;59.30
22714;DHT22;11524;50.846;4.326;2023-04-24T05:27:00;19.00;62.00
22714;DHT22;11524;50.846;4.326;2023-04-24T05:29:25;19.00;59.30
22714;DHT22;11524;50.846;4.326;2023-04-24T05:31:52;19.00;58.70
22714;DHT22;11524;50.846;4.326;2023-04-24T05:34:18;19.00;59.10
22714;DHT22;11524;50.846;4.326;2023-04-24T05:36:43;19.00;58.60
22714;DHT22;11524;50.846;4.326;2023-04-24T05:39:09;19.00;58.50
22714;DHT22;11524;50.846;4.326;2023-04-24T05:41:35;19.00;58.40
22714;DHT22;11524;50.846;4.326;2023-04-24T05:44:00;19.00;58.70
22714;DHT22;11524;50.846;4.326;2023-04-24T05:46:26;19.00;58.30
22714;DHT22;11524;50.846;4.326;2023-04-24T05:48:52;19.00;58.20
22714;DHT22;11524;50.846;4.326;2023-04-24T05:51:18;19.00;58.20
22714;DHT22;11524;50.846;4.326;2023-04-24T05:53:43;19.00;58.40
22714;DHT22;11524;50.846;4.326;2023-04-24T05:56:09;19.00;58.40
22714;DHT22;11524;50.846;4.326;2023-04-24T05:58:35;19.00;58.40
22714;DHT22;11524;50.846;4.326;2023-04-24T06:01:00;19.00;59.20
22714;DHT22;11524;50.846;4.326;2023-04-24T06:03:27;19.00;59.10
22714;DHT22;11524;50.846;4.326;2023-04-24T06:05:53;19.00;59.50
22714;DHT22;11524;50.846;4.326;2023-04-24T06:08:19;19.00;59.60
22714;DHT22;11524;50.846;4.326;2023-04-24T06:10:44;18.90;59.80
22714;DHT22;11524;50.846;4.326;2023-04-24T06:13:10;19.00;59.40
22714;DHT22;11524;50.846;4.326;2023-04-24T06:15:36;18.90;59.10
22714;DHT22;11524;50.846;4.326;2023-04-24T06:18:02;19.00;59.20
22714;DHT22;11524;50.846;4.326;2023-04-24T06:20:28;18.90;59.20
22714;DHT22;11524;50.846;4.326;2023-04-24T06:22:54;19.00;59.30
22714;DHT22;11524;50.846;4.326;2023-04-24T06:25:20;19.00;59.20
22714;DHT22;11524;50.846;4.326;2023-04-24T06:27:45;19.00;59.10
22714;DHT22;11524;50.846;4.326;2023-04-24T06:30:11;18.90;58.90
22714;DHT22;11524;50.846;4.326;2023-04-24T06:32:37;18.90;59.50
22714;DHT22;11524;50.846;4.326;2023-04-24T06:35:03;18.90;58.80
22714;DHT22;11524;50.846;4.326;2023-04-24T06:37:29;18.90;58.80
22714;DHT22;11524;50.846;4.326;2023-04-24T06:39:55;18.90;59.00
22714;DHT22;11524;50.846;4.326;2023-04-24T06:42:20;18.90;58.70
22714;DHT22;11524;50.846;4.326;2023-04-24T06:44:47;18.90;58.70
22714;DHT22;11524;50.846;4.326;2023-04-24T06:47:13;18.90;58.60
22714;DHT22;11524;50.846;4.326;2023-04-24T06:49:41;18.90;58.50
22714;DHT22;11524;50.846;4.326;2023-04-24T06:52:07;19.10;58.20
22714;DHT22;11524;50.846;4.326;2023-04-24T06:54:33;19.30;57.60
22714;DHT22;11524;50.846;4.326;2023-04-24T06:56:59;19.40;57.20
22714;DHT22;11524;50.846;4.326;2023-04-24T06:59:29;19.40;57.00
22714;DHT22;11524;50.846;4.326;2023-04-24T07:01:55;19.50;56.90
22714;DHT22;11524;50.846;4.326;2023-04-24T07:04:21;19.60;57.00
22714;DHT22;11524;50.846;4.326;2023-04-24T07:06:47;19.60;56.70
22714;DHT22;11524;50.846;4.326;2023-04-24T07:09:14;19.60;56.80
22714;DHT22;11524;50.846;4.326;2023-04-24T07:11:41;19.60;56.40
22714;DHT22;11524;50.846;4.326;2023-04-24T07:14:07;19.70;56.40
22714;DHT22;11524;50.846;4.326;2023-04-24T07:16:33;19.70;56.20
22714;DHT22;11524;50.846;4.326;2023-04-24T07:18:58;19.80;56.30
22714;DHT22;11524;50.846;4.326;2023-04-24T07:21:24;19.90;55.60
22714;DHT22;11524;50.846;4.326;2023-04-24T07:23:51;19.90;55.70
22714;DHT22;11524;50.846;4.326;2023-04-24T07:26:16;20.00;55.40
22714;DHT22;11524;50.846;4.326;2023-04-24T07:28:42;20.00;55.30
22714;DHT22;11524;50.846;4.326;2023-04-24T07:31:08;20.00;55.10
22714;DHT22;11524;50.846;4.326;2023-04-24T07:33:34;20.00;55.20
22714;DHT22;11524;50.846;4.326;2023-04-24T07:36:01;20.00;55.00
22714;DHT22;11524;50.846;4.326;2023-04-24T07:38:29;20.00;55.30
22714;DHT22;11524;50.846;4.326;2023-04-24T07:40:55;20.00;55.00
22714;DHT22;11524;50.846;4.326;2023-04-24T07:43:21;20.00;55.30
22714;DHT22;11524;50.846;4.326;2023-04-24T07:45:47;20.00;54.90
22714;DHT22;11524;50.846;4.326;2023-04-24T07:48:13;20.00;55.10
22714;DHT22;11524;50.846;4.326;2023-04-24T07:50:42;20.10;55.20
22714;DHT22;11524;50.846;4.326;2023-04-24T07:53:07;20.10;55.30
22714;DHT22;11524;50.846;4.326;2023-04-24T07:55:33;20.10;54.90
22714;DHT22;11524;50.846;4.326;2023-04-24T07:57:59;20.10;54.80
22714;DHT22;11524;50.846;4.326;2023-04-24T08:00:24;20.10;54.80
22714;DHT22;11524;50.846;4.326;2023-04-24T08:02:50;20.20;54.40
22714;DHT22;11524;50.846;4.326;2023-04-24T08:05:16;20.20;54.40
22714;DHT22;11524;50.846;4.326;2023-04-24T08:07:41;20.20;54.30
22714;DHT22;11524;50.846;4.326;2023-04-24T08:10:11;20.20;54.50
22714;DHT22;11524;50.846;4.326;2023-04-24T08:12:37;20.20;54.60
22714;DHT22;11524;50.846;4.326;2023-04-24T08:15:04;20.20;54.50
22714;DHT22;11524;50.846;4.326;2023-04-24T08:17:29;20.20;54.60
22714;DHT22;11524;50.846;4.326;2023-04-24T08:19:55;20.20;54.40
22714;DHT22;11524;50.846;4.326;2023-04-24T08:22:27;20.20;54.00
22714;DHT22;11524;50.846;4.326;2023-04-24T08:24:53;20.20;54.10
22714;DHT22;11524;50.846;4.326;2023-04-24T08:27:19;20.20;54.00
22714;DHT22;11524;50.846;4.326;2023-04-24T08:29:44;20.30;54.00
22714;DHT22;11524;50.846;4.326;2023-04-24T08:32:10;20.30;54.30
22714;DHT22;11524;50.846;4.326;2023-04-24T08:34:36;20.30;53.90
22714;DHT22;11524;50.846;4.326;2023-04-24T08:37:02;20.30;53.90
22714;DHT22;11524;50.846;4.326;2023-04-24T08:39:28;20.30;53.80
22714;DHT22;11524;50.846;4.326;2023-04-24T08:41:55;20.30;53.50
22714;DHT22;11524;50.846;4.326;2023-04-24T08:44:21;20.50;53.60
22714;DHT22;11524;50.846;4.326;2023-04-24T08:46:50;20.80;53.60
22714;DHT22;11524;50.846;4.326;2023-04-24T08:49:17;21.00;53.10
22714;DHT22;11524;50.846;4.326;2023-04-24T08:51:44;21.20;52.80
22714;DHT22;11524;50.846;4.326;2023-04-24T08:54:12;21.40;52.80
22714;DHT22;11524;50.846;4.326;2023-04-24T08:56:38;21.70;52.20
22714;DHT22;11524;50.846;4.326;2023-04-24T08:59:06;21.90;51.40
22714;DHT22;11524;50.846;4.326;2023-04-24T09:01:32;22.00;51.20
22714;DHT22;11524;50.846;4.326;2023-04-24T09:04:04;22.20;50.50
22714;DHT22;11524;50.846;4.326;2023-04-24T09:06:30;22.20;50.50
22714;DHT22;11524;50.846;4.326;2023-04-24T09:09:00;22.20;50.60
22714;DHT22;11524;50.846;4.326;2023-04-24T09:11:26;22.10;51.10
22714;DHT22;11524;50.846;4.326;2023-04-24T09:13:54;22.00;51.20
22714;DHT22;11524;50.846;4.326;2023-04-24T09:16:20;21.90;51.10
22714;DHT22;11524;50.846;4.326;2023-04-24T09:18:46;21.90;51.30
22714;DHT22;11524;50.846;4.326;2023-04-24T09:21:12;21.80;51.60
22714;DHT22;11524;50.846;4.326;2023-04-24T09:23:38;21.70;51.30
22714;DHT22;11524;50.846;4.326;2023-04-24T09:26:04;21.70;51.30
22714;DHT22;11524;50.846;4.326;2023-04-24T09:28:36;21.60;51.20
22714;DHT22;11524;50.846;4.326;2023-04-24T09:31:17;21.60;51.40
22714;DHT22;11524;50.846;4.326;2023-04-24T09:34:01;21.50;51.70
22714;DHT22;11524;50.846;4.326;2023-04-24T09:36:34;21.40;51.30
22714;DHT22;11524;50.846;4.326;2023-04-24T09:39:01;21.40;51.20
22714;DHT22;11524;50.846;4.326;2023-04-24T09:41:27;21.40;51.10
22714;DHT22;11524;50.846;4.326;2023-04-24T09:43:55;21.40;51.30
22714;DHT22;11524;50.846;4.326;2023-04-24T09:46:21;21.40;50.90
22714;DHT22;11524;50.846;4.326;2023-04-24T09:48:49;21.40;51.00
22714;DHT22;11524;50.846;4.326;2023-04-24T09:51:14;21.30;50.50
22714;DHT22;11524;50.846;4.326;2023-04-24T09:53:45;21.30;50.10
22714;DHT22;11524;50.846;4.326;2023-04-24T09:56:12;21.30;50.10
22714;DHT22;11524;50.846;4.326;2023-04-24T09:58:40;21.30;50.20
22714;DHT22;11524;50.846;4.326;2023-04-24T10:01:06;21.30;50.10
22714;DHT22;11524;50.846;4.326;2023-04-24T10:03:33;21.30;50.00
22714;DHT22;11524;50.846;4.326;2023-04-24T10:06:00;21.30;50.00
22714;DHT22;11524;50.846;4.326;2023-04-24T10:08:26;21.30;49.80
22714;DHT22;11524;50.846;4.326;2023-04-24T10:10:58;21.30;49.80
22714;DHT22;11524;50.846;4.326;2023-04-24T10:13:25;21.30;49.30
22714;DHT22;11524;50.846;4.326;2023-04-24T10:15:51;21.30;49.00
22714;DHT22;11524;50.846;4.326;2023-04-24T10:18:17;21.30;48.60
22714;DHT22;11524;50.846;4.326;2023-04-24T10:20:43;21.30;48.80
22714;DHT22;11524;50.846;4.326;2023-04-24T10:23:09;21.30;48.70
22714;DHT22;11524;50.846;4.326;2023-04-24T10:25:36;21.30;48.80
22714;DHT22;11524;50.846;4.326;2023-04-24T10:28:03;21.30;48.70
22714;DHT22;11524;50.846;4.326;2023-04-24T10:30:31;21.20;48.70
22714;DHT22;11524;50.846;4.326;2023-04-24T10:33:00;21.20;48.30
22714;DHT22;11524;50.846;4.326;2023-04-24T10:35:26;21.20;48.50
22714;DHT22;11524;50.846;4.326;2023-04-24T10:38:22;21.20;48.30
22714;DHT22;11524;50.846;4.326;2023-04-24T10:40:49;21.20;48.40
22714;DHT22;11524;50.846;4.326;2023-04-24T10:43:17;21.30;48.10
22714;DHT22;11524;50.846;4.326;2023-04-24T10:46:04;21.30;48.20
22714;DHT22;11524;50.846;4.326;2023-04-24T10:48:30;21.30;48.30
22714;DHT22;11524;50.846;4.326;2023-04-24T10:50:56;21.30;48.50
22714;DHT22;11524;50.846;4.326;2023-04-24T10:53:23;21.30;48.20
22714;DHT22;11524;50.846;4.326;2023-04-24T10:56:08;21.30;48.60
22714;DHT22;11524;50.846;4.326;2023-04-24T10:58:40;21.30;48.50
22714;DHT22;11524;50.846;4.326;2023-04-24T11:01:06;21.30;48.40
22714;DHT22;11524;50.846;4.326;2023-04-24T11:03:33;21.30;48.30
22714;DHT22;11524;50.846;4.326;2023-04-24T11:06:06;21.30;48.00
22714;DHT22;11524;50.846;4.326;2023-04-24T11:08:52;21.20;48.30
22714;DHT22;11524;50.846;4.326;2023-04-24T11:11:28;21.20;48.60
22714;DHT22;11524;50.846;4.326;2023-04-24T11:16:21;21.30;48.40
22714;DHT22;11524;50.846;4.326;2023-04-24T11:21:41;21.40;48.50
22714;DHT22;11524;50.846;4.326;2023-04-24T11:24:38;21.40;48.70
22714;DHT22;11524;50.846;4.326;2023-04-24T11:27:17;21.40;48.60
22714;DHT22;11524;50.846;4.326;2023-04-24T11:29:49;21.50;48.30
22714;DHT22;11524;50.846;4.326;2023-04-24T11:32:34;21.50;48.50
22714;DHT22;11524;50.846;4.326;2023-04-24T11:37:46;21.50;48.10
22714;DHT22;11524;50.846;4.326;2023-04-24T11:40:15;21.50;48.10
22714;DHT22;11524;50.846;4.326;2023-04-24T11:42:48;21.50;47.70
22714;DHT22;11524;50.846;4.326;2023-04-24T11:45:25;21.50;47.90
22714;DHT22;11524;50.846;4.326;2023-04-24T11:47:51;21.50;47.80
22714;DHT22;11524;50.846;4.326;2023-04-24T11:50:19;21.60;48.20
22714;DHT22;11524;50.846;4.326;2023-04-24T11:52:47;21.50;47.80
22714;DHT22;11524;50.846;4.326;2023-04-24T11:57:46;21.60;48.00
22714;DHT22;11524;50.846;4.326;2023-04-24T12:02:49;21.60;47.60
22714;DHT22;11524;50.846;4.326;2023-04-24T12:05:23;21.60;47.40
22714;DHT22;11524;50.846;4.326;2023-04-24T12:07:48;21.60;47.90
22714;DHT22;11524;50.846;4.326;2023-04-24T12:10:19;21.60;45.80
22714;DHT22;11524;50.846;4.326;2023-04-24T12:12:45;21.60;47.00
22714;DHT22;11524;50.846;4.326;2023-04-24T12:15:11;21.60;47.30
22714;DHT22;11524;50.846;4.326;2023-04-24T12:17:41;21.60;47.60
22714;DHT22;11524;50.846;4.326;2023-04-24T12:20:08;21.60;47.60
22714;DHT22;11524;50.846;4.326;2023-04-24T12:22:49;21.60;47.30
22714;DHT22;11524;50.846;4.326;2023-04-24T12:25:16;21.60;47.40
22714;DHT22;11524;50.846;4.326;2023-04-24T12:27:51;21.60;47.30
22714;DHT22;11524;50.846;4.326;2023-04-24T12:30:18;21.60;48.10
22714;DHT22;11524;50.846;4.326;2023-04-24T12:32:47;21.60;47.60
22714;DHT22;11524;50.846;4.326;2023-04-24T12:35:13;21.60;47.50
22714;DHT22;11524;50.846;4.326;2023-04-24T12:37:42;21.60;47.30
22714;DHT22;11524;50.846;4.326;2023-04-24T12:40:12;21.60;47.10
22714;DHT22;11524;50.846;4.326;2023-04-24T12:42:48;21.60;46.60
22714;DHT22;11524;50.846;4.326;2023-04-24T12:45:15;21.60;46.90
22714;DHT22;11524;50.846;4.326;2023-04-24T12:47:42;21.60;46.70
22714;DHT22;11524;50.846;4.326;2023-04-24T12:50:13;21.60;47.00
22714;DHT22;11524;50.846;4.326;2023-04-24T12:52:40;21.60;46.80
22714;DHT22;11524;50.846;4.326;2023-04-24T12:55:06;21.60;46.80
22714;DHT22;11524;50.846;4.326;2023-04-24T12:57:37;21.60;46.50
22714;DHT22;11524;50.846;4.326;2023-04-24T13:00:03;21.60;46.90
22714;DHT22;11524;50.846;4.326;2023-04-24T13:02:30;21.60;46.40
22714;DHT22;11524;50.846;4.326;2023-04-24T13:05:00;21.60;46.40
22714;DHT22;11524;50.846;4.326;2023-04-24T13:07:27;21.60;46.40
22714;DHT22;11524;50.846;4.326;2023-04-24T13:09:56;21.60;46.50
22714;DHT22;11524;50.846;4.326;2023-04-24T13:12:23;21.60;46.50
22714;DHT22;11524;50.846;4.326;2023-04-24T13:14:52;21.60;46.40
22714;DHT22;11524;50.846;4.326;2023-04-24T13:17:17;21.60;46.40
22714;DHT22;11524;50.846;4.326;2023-04-24T13:19:44;21.60;46.70
22714;DHT22;11524;50.846;4.326;2023-04-24T13:22:11;21.60;46.50
22714;DHT22;11524;50.846;4.326;2023-04-24T13:24:38;21.60;46.10
22714;DHT22;11524;50.846;4.326;2023-04-24T13:27:05;21.70;45.90
22714;DHT22;11524;50.846;4.326;2023-04-24T13:29:30;21.60;45.90
22714;DHT22;11524;50.846;4.326;2023-04-24T13:31:56;21.70;48.90
22714;DHT22;11524;50.846;4.326;2023-04-24T13:34:26;21.70;51.60
22714;DHT22;11524;50.846;4.326;2023-04-24T13:36:56;21.80;52.40
22714;DHT22;11524;50.846;4.326;2023-04-24T13:39:22;21.80;52.60
22714;DHT22;11524;50.846;4.326;2023-04-24T13:41:48;21.80;52.60
22714;DHT22;11524;50.846;4.326;2023-04-24T13:44:15;21.90;52.60
22714;DHT22;11524;50.846;4.326;2023-04-24T13:46:42;21.90;52.70
22714;DHT22;11524;50.846;4.326;2023-04-24T13:49:09;21.90;52.90
22714;DHT22;11524;50.846;4.326;2023-04-24T13:51:35;21.90;52.80
22714;DHT22;11524;50.846;4.326;2023-04-24T13:54:01;22.00;52.90
22714;DHT22;11524;50.846;4.326;2023-04-24T13:56:27;21.90;52.90
22714;DHT22;11524;50.846;4.326;2023-04-24T13:58:52;22.00;52.90
22714;DHT22;11524;50.846;4.326;2023-04-24T14:01:20;22.00;52.90
22714;DHT22;11524;50.846;4.326;2023-04-24T14:03:49;22.00;52.80
22714;DHT22;11524;50.846;4.326;2023-04-24T14:06:15;22.00;52.60
22714;DHT22;11524;50.846;4.326;2023-04-24T14:08:40;22.10;52.50
22714;DHT22;11524;50.846;4.326;2023-04-24T14:11:06;22.10;52.40
22714;DHT22;11524;50.846;4.326;2023-04-24T14:13:32;22.10;52.30
22714;DHT22;11524;50.846;4.326;2023-04-24T14:15:58;22.10;52.20
22714;DHT22;11524;50.846;4.326;2023-04-24T14:18:24;22.10;52.00
22714;DHT22;11524;50.846;4.326;2023-04-24T14:20:49;22.10;51.90
22714;DHT22;11524;50.846;4.326;2023-04-24T14:23:15;22.20;51.80
22714;DHT22;11524;50.846;4.326;2023-04-24T14:25:41;22.20;51.70
22714;DHT22;11524;50.846;4.326;2023-04-24T14:28:07;22.20;51.50
22714;DHT22;11524;50.846;4.326;2023-04-24T14:30:32;22.20;51.40
22714;DHT22;11524;50.846;4.326;2023-04-24T14:32:58;22.20;51.20
22714;DHT22;11524;50.846;4.326;2023-04-24T14:35:24;22.20;51.00
22714;DHT22;11524;50.846;4.326;2023-04-24T14:37:50;22.20;50.90
22714;DHT22;11524;50.846;4.326;2023-04-24T14:40:16;22.30;50.60
22714;DHT22;11524;50.846;4.326;2023-04-24T14:42:42;22.20;50.40
22714;DHT22;11524;50.846;4.326;2023-04-24T14:45:08;22.20;47.90
22714;DHT22;11524;50.846;4.326;2023-04-24T14:47:33;22.10;46.10
22714;DHT22;11524;50.846;4.326;2023-04-24T14:49:59;22.10;45.10
22714;DHT22;11524;50.846;4.326;2023-04-24T14:52:25;22.00;44.60
22714;DHT22;11524;50.846;4.326;2023-04-24T14:54:50;22.00;44.40
22714;DHT22;11524;50.846;4.326;2023-04-24T14:57:16;22.00;44.10
22714;DHT22;11524;50.846;4.326;2023-04-24T14:59:41;21.90;44.00
22714;DHT22;11524;50.846;4.326;2023-04-24T15:02:08;21.90;43.90
22714;DHT22;11524;50.846;4.326;2023-04-24T15:04:33;21.90;43.70
22714;DHT22;11524;50.846;4.326;2023-04-24T15:06:59;21.90;43.50
22714;DHT22;11524;50.846;4.326;2023-04-24T15:09:25;21.90;43.50
22714;DHT22;11524;50.846;4.326;2023-04-24T15:11:52;21.90;43.50
22714;DHT22;11524;50.846;4.326;2023-04-24T15:14:18;21.90;43.60
22714;DHT22;11524;50.846;4.326;2023-04-24T15:16:44;21.90;43.40
22714;DHT22;11524;50.846;4.326;2023-04-24T15:19:10;21.90;43.20
22714;DHT22;11524;50.846;4.326;2023-04-24T15:21:36;21.90;43.10
22714;DHT22;11524;50.846;4.326;2023-04-24T15:24:03;21.90;43.50
22714;DHT22;11524;50.846;4.326;2023-04-24T15:26:29;21.90;43.20
22714;DHT22;11524;50.846;4.326;2023-04-24T15:28:55;21.90;43.10
22714;DHT22;11524;50.846;4.326;2023-04-24T15:31:20;21.80;43.10
22714;DHT22;11524;50.846;4.326;2023-04-24T15:33:48;21.80;43.20
22714;DHT22;11524;50.846;4.326;2023-04-24T15:36:15;21.80;42.90
22714;DHT22;11524;50.846;4.326;2023-04-24T15:38:41;21.80;43.00
22714;DHT22;11524;50.846;4.326;2023-04-24T15:41:08;21.80;43.00